岡山グライダークラブ活動状況掲示板

岡山グライダークラブ
岡山市浦安南町639-1 岡南飛行場
 使用機:シャイベ式 SF25C型 ファルケ   JA2330
      ヴァレンティン式17E型 タイフーン  JA2342
 練習日:毎日曜日  クラブルーム:電話 086-265-1810
この掲示板は岡山グライダークラブの活動状況をお知らせする掲示板です。
!!!この掲示板は投稿規制をしています。!!!
クラブ関連各種情報は 岡山グライダークラブクラブルーム      を       .
  ブリーフイング情報は  岡山グライダークラブブリーフィングルーム  をご覧下さい。 .
※写真はクリックすると拡大して見ることが出来ます。
岡南飛行場へのアクセス等は 岡南飛行場管理事務所 をご覧ください。
クラブの ホームページ ができました。

!!!お待たせしました。新型コロナ感染症の感染が下火になったことから見学者等の受入を再開します。!!!
  注)なお、見学等の際には一般的な感染対策(マスク、ソーシャルディスタンス、黙食等)を順守してください。

 
10月09日
by OGC at 2022/10/12(水) 22:30:35 No.20221012222602  削除コメント
1706 x 960 x 199,739バイト <この画像は大きいので別画面で表示します>
No.1

10月09日
本日の参加者
  会員      12名
  その他     02名


@本日の様子






METAR
RJBK 090000Z VRB01KT 30KM FEW030CUSCT180AC BKN/// 14/10 Q1022 A3018
RJOB 090000Z VRB02KT 9999 FEW020 SCT160 BKN180 14/12 Q1022
RJOT 090000Z 01002KT 9999 FEW020 SCT170 BKN/// 16/13 Q1021
RJOA 090000Z 07007KT 9999 FEW020 SCT140 BKN160 14/10 Q1021
TAF
RJOB 082307Z 0900/1006 08005KT 9999 FEW015 SCT045
     TEMPO 0906/0912 3000 SHRA BR BCFG FEW000 SCT003 BKN005
     TEMPO 0912/0918 1500 SHRA BR BCFG FEW000 SCT001 BKN003
     BECMG 0918/0921 26010KT
     TEMPO 0918/0921 3000 -SHRA BR BCFG FEW000 SCT003 BKN005
RJOT 082308Z 0900/1006 06005KT 8000 -SHRA FEW005 SCT015 BKN025
     TEMPO 0906/0915 3000 SHRA BR BCFG FEW000 BKN005 BKN008
     BECMG 0915/0918 26012KT
     TEMPO 1000/1006 27020G30KT
RJOA 082307Z 0900/1006 10005KT 9999 FEW025 SCT040
     BECMG 0908/0910 3000 -SHRA BR BCFG FEW000 SCT005 BKN008
     TEMPO 0910/0918 1500 SHRA BR BCFG FEW000 BKN003 BKN008
     BECMG 0918/0921 28012KT 9999 NSW FEW020 SCT030

更新が遅れて、すみません。m(__)m
天候は曇り後雨、夕方から雨が心配な天気でした。


解散    17:00

1番機  10:20離陸 撤収機  16:10着陸 

SF25C JA2330 ファルケ     08Flt.3h05min  
17E   JA2342 タイフーン    00Flt.0h00min
合計                    08Flt.3h05min

    << 戻る || ホームページ || 最新の掲示板へ